Alliance, NE

4:47 PM MDT on September 16, 2014 (GMT -0600)
Panhandle Coop/Box Butte Co | Change Station
CLOSE
Current Station
Personal Weather Station
Location: Alliance, NE
Elevation: 4140 ft
Nearby Weather Stations

Elev 4140 ft 42.22 °N, 102.98 °W | Updated 10 minutes ago

Clear
Clear
83.9 °F
Feels Like 81 °F
N
5.0
Wind Variable Wind from WNW
Gusts 9.0 mph

Today
High -- | Low -- °F
--% Chance of Precip.
Yesterday
High -- | Low -- °F
Precip. -- in
6:32 AM 6:59 PM
Last Quarter, 42% visible
Pressure 29.89 in
Visibility 10.0 miles
Clouds Clear
Heat Index 81 °F
Dew Point 37 °F
Humidity 19%
Rainfall 0.00 in
Snow Depth Not available.
UV 4 out of 12
Pollen 6.40 out of 12
Air Quality Not available.
Flu Activity Not available.
METAR KBFF 162153Z AUTO 28006KT 10SM CLR 31/06 A3001 RMK AO2 SLP120 T03060056 $

More Conditions Fewer Conditions

Pressure 29.89 in
Visibility 10.0 miles
Clouds Clear
Heat Index 81 °F
Dew Point 37 °F
Humidity 19%
Rainfall 0.00 in
Snow Depth Not available.
UV 4 out of 12
Pollen 6.40 out of 12
Air Quality Not available.
Flu Activity Not available.
METAR KBFF 162153Z AUTO 28006KT 10SM CLR 31/06 A3001 RMK AO2 SLP120 T03060056 $

More Conditions Fewer Conditions

10-Day Weather Forecast

Almanac

Astronomy

Sep. 16, 2014 Rise Set
Actual Time 6:32 AM MDT 6:59 PM MDT
Civil Twilight 6:04 AM MDT 7:27 PM MDT
Nautical Twilight 5:31 AM MDT 8:00 PM MDT
Astronomical Twilight 4:57 AM MDT 8:34 PM MDT
Moon No Moon Rise 2:29 PM MDT
Length of Visible Light 13h 22m
Length of Day
12h 26m
Tomorrow will be 2m 49s shorter.
Last Quarter, 42% of the Moon is Illuminated
Today
Last Quarter
Sep 24
New
Oct 1
First Quarter
Oct 8
Full
Oct 15
Last Quarter

Today's Extremes

State Highs State Lows

Community

WunderPhotos

Upload Photos

1,753,897 photos uploaded!

Nearby

Snow Depth

Station Depth Elevation
No new snow has been reported.

Earthquake Activity

City Distance Mag. Time & Date
No recent earthquake activity has been reported nearby.
Minimum magnitude displayed is 2.5.

Coastal Water Temperatures

Place Temperature
No Stations Reporting

Nearby Weather Stations